sensor_id;sensor_type;location;lat;lon;timestamp;pressure;altitude;pressure_sealevel;temperature;humidity
59337;BME280;45115;52.002;4.686;2023-07-24T00:02:20;100438.28;;;18.24;96.70
59337;BME280;45115;52.002;4.686;2023-07-24T00:04:46;100435.53;;;18.24;97.00
59337;BME280;45115;52.002;4.686;2023-07-24T00:07:13;100437.22;;;18.25;97.31
59337;BME280;45115;52.002;4.686;2023-07-24T00:09:40;100431.66;;;18.25;96.66
59337;BME280;45115;52.002;4.686;2023-07-24T00:12:08;100429.09;;;18.24;95.36
59337;BME280;45115;52.002;4.686;2023-07-24T00:14:35;100424.22;;;18.26;95.73
59337;BME280;45115;52.002;4.686;2023-07-24T00:17:01;100421.59;;;18.18;96.23
59337;BME280;45115;52.002;4.686;2023-07-24T00:19:28;100419.09;;;18.23;96.71
59337;BME280;45115;52.002;4.686;2023-07-24T00:21:55;100416.50;;;18.21;97.07
59337;BME280;45115;52.002;4.686;2023-07-24T00:24:21;100413.94;;;18.20;96.95
59337;BME280;45115;52.002;4.686;2023-07-24T00:26:48;100414.81;;;18.20;96.31
59337;BME280;45115;52.002;4.686;2023-07-24T00:29:16;100400.94;;;18.20;96.63
59337;BME280;45115;52.002;4.686;2023-07-24T00:31:43;100409.22;;;18.14;96.81
59337;BME280;45115;52.002;4.686;2023-07-24T00:34:09;100393.41;;;18.08;97.58
59337;BME280;45115;52.002;4.686;2023-07-24T00:36:37;100396.16;;;18.08;97.49
59337;BME280;45115;52.002;4.686;2023-07-24T00:39:05;100394.22;;;18.02;97.95
59337;BME280;45115;52.002;4.686;2023-07-24T00:41:32;100388.16;;;17.92;97.75
59337;BME280;45115;52.002;4.686;2023-07-24T00:43:59;100385.22;;;17.93;98.24
59337;BME280;45115;52.002;4.686;2023-07-24T00:46:28;100379.03;;;17.91;98.64
59337;BME280;45115;52.002;4.686;2023-07-24T00:48:58;100388.38;;;17.90;98.31
59337;BME280;45115;52.002;4.686;2023-07-24T00:51:26;100380.28;;;17.89;98.85
59337;BME280;45115;52.002;4.686;2023-07-24T00:53:54;100375.81;;;17.88;98.81
59337;BME280;45115;52.002;4.686;2023-07-24T00:56:22;100375.59;;;17.89;99.00
59337;BME280;45115;52.002;4.686;2023-07-24T00:58:49;100376.69;;;17.95;99.24
59337;BME280;45115;52.002;4.686;2023-07-24T01:01:16;100376.03;;;17.93;99.58
59337;BME280;45115;52.002;4.686;2023-07-24T01:03:45;100366.28;;;17.97;99.68
59337;BME280;45115;52.002;4.686;2023-07-24T01:06:12;100362.66;;;18.03;99.60
59337;BME280;45115;52.002;4.686;2023-07-24T01:08:38;100369.31;;;18.08;99.59
59337;BME280;45115;52.002;4.686;2023-07-24T01:11:11;100363.75;;;18.08;99.38
59337;BME280;45115;52.002;4.686;2023-07-24T01:13:43;100368.25;;;18.09;99.45
59337;BME280;45115;52.002;4.686;2023-07-24T01:16:14;100373.56;;;18.11;99.46
59337;BME280;45115;52.002;4.686;2023-07-24T01:18:46;100361.81;;;18.02;99.93
59337;BME280;45115;52.002;4.686;2023-07-24T01:21:16;100361.59;;;18.04;99.62
59337;BME280;45115;52.002;4.686;2023-07-24T01:23:54;100361.34;;;17.99;100.00
59337;BME280;45115;52.002;4.686;2023-07-24T01:26:23;100353.22;;;17.91;100.00
59337;BME280;45115;52.002;4.686;2023-07-24T01:28:50;100355.97;;;17.84;100.00
59337;BME280;45115;52.002;4.686;2023-07-24T01:31:17;100356.41;;;17.88;100.00
59337;BME280;45115;52.002;4.686;2023-07-24T01:33:44;100351.75;;;17.95;100.00
59337;BME280;45115;52.002;4.686;2023-07-24T01:36:18;100353.00;;;17.92;100.00
59337;BME280;45115;52.002;4.686;2023-07-24T01:38:45;100343.38;;;17.88;100.00
59337;BME280;45115;52.002;4.686;2023-07-24T01:41:14;100357.44;;;17.87;100.00
59337;BME280;45115;52.002;4.686;2023-07-24T01:43:42;100353.44;;;17.89;100.00
59337;BME280;45115;52.002;4.686;2023-07-24T01:46:09;100345.97;;;17.90;100.00
59337;BME280;45115;52.002;4.686;2023-07-24T01:48:36;100351.53;;;17.90;100.00
59337;BME280;45115;52.002;4.686;2023-07-24T01:51:03;100346.38;;;17.87;100.00
59337;BME280;45115;52.002;4.686;2023-07-24T01:53:29;100346.56;;;17.85;100.00
59337;BME280;45115;52.002;4.686;2023-07-24T01:55:57;100347.84;;;17.83;100.00
59337;BME280;45115;52.002;4.686;2023-07-24T01:58:24;100348.91;;;17.81;100.00
59337;BME280;45115;52.002;4.686;2023-07-24T02:00:54;100341.03;;;17.85;100.00
59337;BME280;45115;52.002;4.686;2023-07-24T02:03:21;100332.06;;;17.83;100.00
59337;BME280;45115;52.002;4.686;2023-07-24T02:05:49;100324.81;;;17.82;100.00
59337;BME280;45115;52.002;4.686;2023-07-24T02:08:17;100328.31;;;17.97;100.00
59337;BME280;45115;52.002;4.686;2023-07-24T02:10:43;100330.25;;;17.97;100.00
59337;BME280;45115;52.002;4.686;2023-07-24T02:13:10;100327.72;;;18.02;100.00
59337;BME280;45115;52.002;4.686;2023-07-24T02:15:37;100317.44;;;18.02;99.88
59337;BME280;45115;52.002;4.686;2023-07-24T02:18:06;100312.13;;;18.01;99.82
59337;BME280;45115;52.002;4.686;2023-07-24T02:20:33;100305.31;;;17.97;100.00
59337;BME280;45115;52.002;4.686;2023-07-24T02:22:59;100305.47;;;17.95;100.00
59337;BME280;45115;52.002;4.686;2023-07-24T02:25:26;100301.88;;;17.95;100.00
59337;BME280;45115;52.002;4.686;2023-07-24T02:27:53;100294.16;;;17.90;100.00
59337;BME280;45115;52.002;4.686;2023-07-24T02:30:22;100294.34;;;17.82;100.00
59337;BME280;45115;52.002;4.686;2023-07-24T02:32:49;100300.47;;;17.77;100.00
59337;BME280;45115;52.002;4.686;2023-07-24T02:35:17;100301.75;;;17.75;100.00
59337;BME280;45115;52.002;4.686;2023-07-24T02:37:45;100299.84;;;17.75;100.00
59337;BME280;45115;52.002;4.686;2023-07-24T02:40:12;100305.13;;;17.70;100.00
59337;BME280;45115;52.002;4.686;2023-07-24T02:42:39;100297.22;;;17.67;100.00
59337;BME280;45115;52.002;4.686;2023-07-24T02:45:06;100282.13;;;17.70;100.00
59337;BME280;45115;52.002;4.686;2023-07-24T02:47:36;100287.22;;;17.66;100.00
59337;BME280;45115;52.002;4.686;2023-07-24T02:50:03;100290.19;;;17.65;100.00
59337;BME280;45115;52.002;4.686;2023-07-24T02:52:32;100294.19;;;17.56;100.00
59337;BME280;45115;52.002;4.686;2023-07-24T02:54:58;100281.16;;;17.56;100.00
59337;BME280;45115;52.002;4.686;2023-07-24T02:57:27;100283.09;;;17.56;100.00
59337;BME280;45115;52.002;4.686;2023-07-24T02:59:53;100288.44;;;17.57;100.00
59337;BME280;45115;52.002;4.686;2023-07-24T03:02:20;100292.31;;;17.63;100.00
59337;BME280;45115;52.002;4.686;2023-07-24T03:04:47;100284.66;;;17.65;100.00
59337;BME280;45115;52.002;4.686;2023-07-24T03:07:13;100277.19;;;17.65;100.00
59337;BME280;45115;52.002;4.686;2023-07-24T03:09:41;100286.34;;;17.66;100.00
59337;BME280;45115;52.002;4.686;2023-07-24T03:12:08;100305.97;;;17.64;100.00
59337;BME280;45115;52.002;4.686;2023-07-24T03:14:36;100298.31;;;17.66;100.00
59337;BME280;45115;52.002;4.686;2023-07-24T03:17:03;100291.03;;;17.65;100.00
59337;BME280;45115;52.002;4.686;2023-07-24T03:19:30;100283.56;;;17.59;100.00
59337;BME280;45115;52.002;4.686;2023-07-24T03:21:56;100297.84;;;17.63;100.00
59337;BME280;45115;52.002;4.686;2023-07-24T03:24:23;100296.56;;;17.65;100.00
59337;BME280;45115;52.002;4.686;2023-07-24T03:26:51;100297.22;;;17.67;100.00
59337;BME280;45115;52.002;4.686;2023-07-24T03:29:19;100280.78;;;17.59;100.00
59337;BME280;45115;52.002;4.686;2023-07-24T03:31:46;100293.34;;;17.62;100.00
59337;BME280;45115;52.002;4.686;2023-07-24T03:34:13;100292.53;;;17.61;100.00
59337;BME280;45115;52.002;4.686;2023-07-24T03:36:40;100290.59;;;17.62;100.00
59337;BME280;45115;52.002;4.686;2023-07-24T03:39:09;100283.56;;;17.59;100.00
59337;BME280;45115;52.002;4.686;2023-07-24T03:41:36;100289.53;;;17.63;100.00
59337;BME280;45115;52.002;4.686;2023-07-24T03:44:04;100281.81;;;17.58;100.00
59337;BME280;45115;52.002;4.686;2023-07-24T03:46:31;100284.59;;;17.58;100.00
59337;BME280;45115;52.002;4.686;2023-07-24T03:48:58;100276.06;;;17.60;100.00
59337;BME280;45115;52.002;4.686;2023-07-24T03:51:24;100279.94;;;17.65;100.00
59337;BME280;45115;52.002;4.686;2023-07-24T03:53:51;100269.09;;;17.64;100.00
59337;BME280;45115;52.002;4.686;2023-07-24T03:56:18;100261.63;;;17.64;100.00
59337;BME280;45115;52.002;4.686;2023-07-24T03:58:44;100260.13;;;17.62;99.44
59337;BME280;45115;52.002;4.686;2023-07-24T04:01:13;100262.06;;;17.61;100.00
59337;BME280;45115;52.002;4.686;2023-07-24T04:03:39;100265.44;;;17.63;99.54
59337;BME280;45115;52.002;4.686;2023-07-24T04:06:06;100273.59;;;17.65;99.36
59337;BME280;45115;52.002;4.686;2023-07-24T04:08:33;100274.03;;;17.68;99.20
59337;BME280;45115;52.002;4.686;2023-07-24T04:10:59;100269.09;;;17.64;99.87
59337;BME280;45115;52.002;4.686;2023-07-24T04:13:26;100271.84;;;17.64;99.89
59337;BME280;45115;52.002;4.686;2023-07-24T04:15:53;100280.38;;;17.62;100.00
59337;BME280;45115;52.002;4.686;2023-07-24T04:18:21;100277.81;;;17.61;100.00
59337;BME280;45115;52.002;4.686;2023-07-24T04:20:47;100281.91;;;17.65;99.94
59337;BME280;45115;52.002;4.686;2023-07-24T04:23:14;100283.38;;;17.67;99.39
59337;BME280;45115;52.002;4.686;2023-07-24T04:25:43;100278.06;;;17.66;99.52
59337;BME280;45115;52.002;4.686;2023-07-24T04:28:10;100284.84;;;17.63;99.61
59337;BME280;45115;52.002;4.686;2023-07-24T04:30:37;100276.06;;;17.60;100.00
59337;BME280;45115;52.002;4.686;2023-07-24T04:33:03;100282.47;;;17.60;98.92
59337;BME280;45115;52.002;4.686;2023-07-24T04:35:31;100286.69;;;17.50;99.77
59337;BME280;45115;52.002;4.686;2023-07-24T04:37:59;100291.50;;;17.41;100.00
59337;BME280;45115;52.002;4.686;2023-07-24T04:40:25;100292.56;;;17.40;100.00
59337;BME280;45115;52.002;4.686;2023-07-24T04:42:52;100287.09;;;17.47;99.30
59337;BME280;45115;52.002;4.686;2023-07-24T04:45:19;100282.44;;;17.54;97.20
59337;BME280;45115;52.002;4.686;2023-07-24T04:47:46;100290.34;;;17.57;96.54
59337;BME280;45115;52.002;4.686;2023-07-24T04:50:12;100287.44;;;17.65;92.88
59337;BME280;45115;52.002;4.686;2023-07-24T04:52:40;100286.38;;;17.72;92.01
59337;BME280;45115;52.002;4.686;2023-07-24T04:55:07;100286.00;;;17.75;90.78
59337;BME280;45115;52.002;4.686;2023-07-24T04:57:34;100284.56;;;17.86;88.55
59337;BME280;45115;52.002;4.686;2023-07-24T05:00:01;100284.81;;;17.91;88.44
59337;BME280;45115;52.002;4.686;2023-07-24T05:02:28;100290.16;;;17.99;88.43
59337;BME280;45115;52.002;4.686;2023-07-24T05:04:54;100289.50;;;17.97;88.23
59337;BME280;45115;52.002;4.686;2023-07-24T05:07:21;100292.13;;;18.05;88.05
59337;BME280;45115;52.002;4.686;2023-07-24T05:09:49;100280.38;;;18.03;87.87
59337;BME280;45115;52.002;4.686;2023-07-24T05:12:16;100276.31;;;17.99;87.35
59337;BME280;45115;52.002;4.686;2023-07-24T05:14:42;100281.22;;;18.04;87.93
59337;BME280;45115;52.002;4.686;2023-07-24T05:17:09;100276.09;;;18.07;87.89
59337;BME280;45115;52.002;4.686;2023-07-24T05:19:36;100279.09;;;18.06;88.29
59337;BME280;45115;52.002;4.686;2023-07-24T05:22:03;100280.63;;;18.15;87.32
59337;BME280;45115;52.002;4.686;2023-07-24T05:24:30;100276.81;;;18.16;86.90
59337;BME280;45115;52.002;4.686;2023-07-24T05:26:58;100276.59;;;18.17;86.43
59337;BME280;45115;52.002;4.686;2023-07-24T05:29:25;100276.38;;;18.19;85.59
59337;BME280;45115;52.002;4.686;2023-07-24T05:31:51;100271.50;;;18.27;85.93
59337;BME280;45115;52.002;4.686;2023-07-24T05:34:18;100276.66;;;18.37;85.51
59337;BME280;45115;52.002;4.686;2023-07-24T05:36:45;100269.09;;;18.71;83.43
59337;BME280;45115;52.002;4.686;2023-07-24T05:39:11;100277.88;;;19.47;80.70
59337;BME280;45115;52.002;4.686;2023-07-24T05:41:44;100276.88;;;20.80;75.47
59337;BME280;45115;52.002;4.686;2023-07-24T05:44:30;100272.03;;;21.92;71.16
59337;BME280;45115;52.002;4.686;2023-07-24T05:46:56;100274.00;;;22.99;66.49
59337;BME280;45115;52.002;4.686;2023-07-24T05:49:23;100278.38;;;23.59;63.40
59337;BME280;45115;52.002;4.686;2023-07-24T05:51:49;100280.22;;;24.00;60.18
59337;BME280;45115;52.002;4.686;2023-07-24T05:54:17;100282.88;;;23.95;60.28
59337;BME280;45115;52.002;4.686;2023-07-24T05:56:44;100286.38;;;23.33;62.45
59337;BME280;45115;52.002;4.686;2023-07-24T05:59:10;100277.66;;;23.75;60.53
59337;BME280;45115;52.002;4.686;2023-07-24T06:01:38;100278.69;;;24.20;59.29
59337;BME280;45115;52.002;4.686;2023-07-24T06:04:05;100286.03;;;23.98;58.90
59337;BME280;45115;52.002;4.686;2023-07-24T06:06:32;100288.34;;;23.44;60.90
59337;BME280;45115;52.002;4.686;2023-07-24T06:08:59;100292.75;;;23.10;62.10
59337;BME280;45115;52.002;4.686;2023-07-24T06:11:26;100290.81;;;22.51;64.21
59337;BME280;45115;52.002;4.686;2023-07-24T06:13:52;100299.38;;;22.38;64.79
59337;BME280;45115;52.002;4.686;2023-07-24T06:16:19;100302.19;;;21.59;66.65
59337;BME280;45115;52.002;4.686;2023-07-24T06:18:47;100297.63;;;21.16;69.01
59337;BME280;45115;52.002;4.686;2023-07-24T06:21:13;100298.81;;;21.01;69.63
59337;BME280;45115;52.002;4.686;2023-07-24T06:23:40;100298.59;;;21.28;68.93
59337;BME280;45115;52.002;4.686;2023-07-24T06:26:07;100290.88;;;21.54;68.76
59337;BME280;45115;52.002;4.686;2023-07-24T06:28:34;100305.13;;;21.64;68.92
59337;BME280;45115;52.002;4.686;2023-07-24T06:31:00;100294.09;;;21.76;66.96
59337;BME280;45115;52.002;4.686;2023-07-24T06:33:27;100294.13;;;21.69;67.99
59337;BME280;45115;52.002;4.686;2023-07-24T06:35:55;100291.34;;;21.69;67.00
59337;BME280;45115;52.002;4.686;2023-07-24T06:38:22;100295.16;;;21.32;69.04
59337;BME280;45115;52.002;4.686;2023-07-24T06:40:49;100294.47;;;21.12;70.72
59337;BME280;45115;52.002;4.686;2023-07-24T06:43:15;100305.78;;;21.17;70.89
59337;BME280;45115;52.002;4.686;2023-07-24T06:45:42;100313.22;;;21.48;70.03
59337;BME280;45115;52.002;4.686;2023-07-24T06:48:09;100309.19;;;21.19;70.15
59337;BME280;45115;52.002;4.686;2023-07-24T06:50:36;100305.50;;;21.25;69.93
59337;BME280;45115;52.002;4.686;2023-07-24T06:53:04;100309.31;;;21.31;70.03
59337;BME280;45115;52.002;4.686;2023-07-24T06:55:31;100310.06;;;20.82;70.99
59337;BME280;45115;52.002;4.686;2023-07-24T06:57:57;100304.47;;;20.57;73.16
59337;BME280;45115;52.002;4.686;2023-07-24T07:00:24;100313.06;;;20.49;73.74
59337;BME280;45115;52.002;4.686;2023-07-24T07:12:01;100303.50;;;21.32;71.59
59337;BME280;45115;52.002;4.686;2023-07-24T07:14:27;100302.88;;;21.30;71.19
59337;BME280;45115;52.002;4.686;2023-07-24T07:16:54;100298.59;;;21.52;70.02
59337;BME280;45115;52.002;4.686;2023-07-24T07:19:21;100300.66;;;22.06;68.44
59337;BME280;45115;52.002;4.686;2023-07-24T07:21:47;100292.44;;;21.68;68.36
59337;BME280;45115;52.002;4.686;2023-07-24T07:24:14;100300.25;;;21.60;68.84
59337;BME280;45115;52.002;4.686;2023-07-24T07:26:41;100294.94;;;21.34;70.03
59337;BME280;45115;52.002;4.686;2023-07-24T07:29:11;100285.94;;;21.74;68.95
59337;BME280;45115;52.002;4.686;2023-07-24T07:31:37;100287.06;;;21.91;68.40
59337;BME280;45115;52.002;4.686;2023-07-24T07:34:04;100291.38;;;22.42;66.43
59337;BME280;45115;52.002;4.686;2023-07-24T07:36:31;100284.34;;;22.39;66.61
59337;BME280;45115;52.002;4.686;2023-07-24T07:38:58;100284.50;;;22.08;67.56
59337;BME280;45115;52.002;4.686;2023-07-24T07:41:24;100275.22;;;21.78;68.50
59337;BME280;45115;52.002;4.686;2023-07-24T07:43:51;100267.69;;;21.54;70.78
59337;BME280;45115;52.002;4.686;2023-07-24T07:46:19;100274.16;;;21.72;71.66
59337;BME280;45115;52.002;4.686;2023-07-24T07:48:45;100283.59;;;21.53;71.40
59337;BME280;45115;52.002;4.686;2023-07-24T07:51:14;100285.28;;;21.54;72.25
59337;BME280;45115;52.002;4.686;2023-07-24T07:53:41;100284.56;;;21.41;72.42
59337;BME280;45115;52.002;4.686;2023-07-24T07:56:08;100282.25;;;21.38;72.93
59337;BME280;45115;52.002;4.686;2023-07-24T07:58:34;100290.59;;;21.38;73.62
59337;BME280;45115;52.002;4.686;2023-07-24T08:01:03;100290.19;;;21.59;74.28
59337;BME280;45115;52.002;4.686;2023-07-24T08:03:31;100285.19;;;21.85;72.47
59337;BME280;45115;52.002;4.686;2023-07-24T08:05:58;100286.06;;;21.61;72.36
59337;BME280;45115;52.002;4.686;2023-07-24T08:08:25;100292.75;;;21.85;71.54
59337;BME280;45115;52.002;4.686;2023-07-24T08:10:52;100291.13;;;21.95;70.20
59337;BME280;45115;52.002;4.686;2023-07-24T08:13:18;100287.09;;;22.09;69.37
59337;BME280;45115;52.002;4.686;2023-07-24T08:15:45;100288.00;;;22.03;71.03
59337;BME280;45115;52.002;4.686;2023-07-24T08:18:11;100284.06;;;21.93;71.39
59337;BME280;45115;52.002;4.686;2023-07-24T08:20:40;100284.75;;;21.88;70.92
59337;BME280;45115;52.002;4.686;2023-07-24T08:23:06;100287.97;;;22.40;68.37
59337;BME280;45115;52.002;4.686;2023-07-24T08:25:33;100294.66;;;22.39;68.88
59337;BME280;45115;52.002;4.686;2023-07-24T08:27:59;100287.47;;;22.61;68.16
59337;BME280;45115;52.002;4.686;2023-07-24T08:30:26;100285.44;;;22.97;67.36
59337;BME280;45115;52.002;4.686;2023-07-24T08:32:54;100281.00;;;23.19;65.11
59337;BME280;45115;52.002;4.686;2023-07-24T08:35:20;100288.88;;;23.11;65.56
59337;BME280;45115;52.002;4.686;2023-07-24T08:37:48;100294.53;;;23.34;64.61
59337;BME280;45115;52.002;4.686;2023-07-24T08:40:15;100295.00;;;23.43;64.99
59337;BME280;45115;52.002;4.686;2023-07-24T08:42:43;100289.06;;;24.08;62.52
59337;BME280;45115;52.002;4.686;2023-07-24T08:45:12;100280.13;;;24.74;61.03
59337;BME280;45115;52.002;4.686;2023-07-24T08:47:42;100271.13;;;24.33;62.07
59337;BME280;45115;52.002;4.686;2023-07-24T08:50:09;100273.97;;;24.21;62.04
59337;BME280;45115;52.002;4.686;2023-07-24T08:52:38;100285.78;;;23.77;61.86
59337;BME280;45115;52.002;4.686;2023-07-24T08:55:07;100288.34;;;23.55;62.51
59337;BME280;45115;52.002;4.686;2023-07-24T08:57:34;100281.59;;;23.21;63.17
59337;BME280;45115;52.002;4.686;2023-07-24T09:00:02;100278.03;;;22.91;64.48
59337;BME280;45115;52.002;4.686;2023-07-24T09:02:31;100269.31;;;22.52;66.20
59337;BME280;45115;52.002;4.686;2023-07-24T09:04:58;100275.75;;;22.23;67.38
59337;BME280;45115;52.002;4.686;2023-07-24T09:07:25;100266.69;;;21.91;68.42
59337;BME280;45115;52.002;4.686;2023-07-24T09:09:51;100261.34;;;21.47;69.35
59337;BME280;45115;52.002;4.686;2023-07-24T09:12:21;100256.75;;;21.59;69.34
59337;BME280;45115;52.002;4.686;2023-07-24T09:14:48;100254.94;;;22.96;65.17
59337;BME280;45115;52.002;4.686;2023-07-24T09:17:15;100246.53;;;24.63;59.92
59337;BME280;45115;52.002;4.686;2023-07-24T09:19:41;100243.47;;;25.09;57.20
59337;BME280;45115;52.002;4.686;2023-07-24T09:22:13;100251.00;;;24.75;57.83
59337;BME280;45115;52.002;4.686;2023-07-24T09:24:50;100242.53;;;24.59;59.39
59337;BME280;45115;52.002;4.686;2023-07-24T09:27:17;100248.47;;;24.34;59.28
59337;BME280;45115;52.002;4.686;2023-07-24T09:29:46;100245.69;;;24.62;57.35
59337;BME280;45115;52.002;4.686;2023-07-24T09:32:19;100239.13;;;24.57;56.61
59337;BME280;45115;52.002;4.686;2023-07-24T09:34:46;100241.31;;;24.26;58.98
59337;BME280;45115;52.002;4.686;2023-07-24T09:37:23;100239.00;;;24.23;60.06
59337;BME280;45115;52.002;4.686;2023-07-24T09:39:49;100244.69;;;24.40;58.47
59337;BME280;45115;52.002;4.686;2023-07-24T09:42:16;100259.38;;;23.96;59.76
59337;BME280;45115;52.002;4.686;2023-07-24T09:44:43;100249.78;;;24.43;58.58
59337;BME280;45115;52.002;4.686;2023-07-24T09:47:11;100248.03;;;24.82;57.68
59337;BME280;45115;52.002;4.686;2023-07-24T09:49:37;100250.97;;;25.20;56.78
59337;BME280;45115;52.002;4.686;2023-07-24T09:52:07;100248.06;;;25.31;56.73
59337;BME280;45115;52.002;4.686;2023-07-24T09:54:42;100247.63;;;24.73;57.58
59337;BME280;45115;52.002;4.686;2023-07-24T09:57:12;100258.22;;;24.88;57.32
59337;BME280;45115;52.002;4.686;2023-07-24T09:59:40;100246.09;;;24.82;57.10
59337;BME280;45115;52.002;4.686;2023-07-24T10:02:12;100243.06;;;25.17;55.61
59337;BME280;45115;52.002;4.686;2023-07-24T10:04:40;100237.63;;;25.60;55.97
59337;BME280;45115;52.002;4.686;2023-07-24T10:07:06;100235.19;;;26.45;52.91
59337;BME280;45115;52.002;4.686;2023-07-24T10:09:33;100235.66;;;26.15;52.54
59337;BME280;45115;52.002;4.686;2023-07-24T10:12:00;100240.78;;;25.30;54.87
59337;BME280;45115;52.002;4.686;2023-07-24T10:14:28;100239.13;;;24.57;56.42
59337;BME280;45115;52.002;4.686;2023-07-24T10:16:56;100241.75;;;23.72;58.46
59337;BME280;45115;52.002;4.686;2023-07-24T10:19:24;100247.84;;;23.46;60.79
59337;BME280;45115;52.002;4.686;2023-07-24T10:22:01;100242.69;;;23.20;62.77
59337;BME280;45115;52.002;4.686;2023-07-24T10:24:29;100237.72;;;23.10;62.89
59337;BME280;45115;52.002;4.686;2023-07-24T10:26:56;100242.88;;;23.37;62.08
59337;BME280;45115;52.002;4.686;2023-07-24T10:29:23;100241.28;;;23.64;63.03
59337;BME280;45115;52.002;4.686;2023-07-24T10:31:53;100232.25;;;24.08;61.71
59337;BME280;45115;52.002;4.686;2023-07-24T10:34:20;100227.63;;;24.42;60.10
59337;BME280;45115;52.002;4.686;2023-07-24T10:36:48;100236.03;;;24.42;57.90
59337;BME280;45115;52.002;4.686;2023-07-24T10:39:16;100235.66;;;23.98;58.38
59337;BME280;45115;52.002;4.686;2023-07-24T10:41:44;100238.47;;;24.38;58.15
59337;BME280;45115;52.002;4.686;2023-07-24T10:44:11;100237.56;;;24.77;57.16
59337;BME280;45115;52.002;4.686;2023-07-24T10:46:39;100229.16;;;25.38;55.75
59337;BME280;45115;52.002;4.686;2023-07-24T10:49:07;100225.47;;;25.21;54.21
59337;BME280;45115;52.002;4.686;2023-07-24T10:51:34;100227.41;;;24.88;56.13
59337;BME280;45115;52.002;4.686;2023-07-24T10:54:04;100221.72;;;25.66;55.58
59337;BME280;45115;52.002;4.686;2023-07-24T10:56:31;100227.44;;;25.92;54.73
59337;BME280;45115;52.002;4.686;2023-07-24T10:59:02;100231.94;;;25.72;53.43
59337;BME280;45115;52.002;4.686;2023-07-24T11:01:30;100232.19;;;25.04;55.68
59337;BME280;45115;52.002;4.686;2023-07-24T11:03:58;100235.84;;;24.32;57.99
59337;BME280;45115;52.002;4.686;2023-07-24T11:06:24;100232.94;;;24.15;58.95
59337;BME280;45115;52.002;4.686;2023-07-24T11:08:51;100238.28;;;24.84;58.84
59337;BME280;45115;52.002;4.686;2023-07-24T11:11:19;100233.75;;;24.39;58.26
59337;BME280;45115;52.002;4.686;2023-07-24T11:13:46;100230.44;;;24.70;58.68
59337;BME280;45115;52.002;4.686;2023-07-24T11:16:13;100233.75;;;25.45;54.92
59337;BME280;45115;52.002;4.686;2023-07-24T11:18:46;100239.41;;;25.16;54.05
59337;BME280;45115;52.002;4.686;2023-07-24T11:21:13;100246.91;;;24.55;55.63
59337;BME280;45115;52.002;4.686;2023-07-24T11:23:45;100235.97;;;24.53;56.35
59337;BME280;45115;52.002;4.686;2023-07-24T11:26:12;100241.91;;;24.28;57.75
59337;BME280;45115;52.002;4.686;2023-07-24T11:28:40;100253.69;;;23.68;58.96
59337;BME280;45115;52.002;4.686;2023-07-24T11:31:07;100234.59;;;23.88;58.99
59337;BME280;45115;52.002;4.686;2023-07-24T11:33:34;100251.94;;;24.13;59.46
59337;BME280;45115;52.002;4.686;2023-07-24T11:36:01;100258.69;;;23.77;60.25
59337;BME280;45115;52.002;4.686;2023-07-24T11:38:28;100251.13;;;23.43;60.26
59337;BME280;45115;52.002;4.686;2023-07-24T11:40:55;100256.81;;;23.83;61.09
59337;BME280;45115;52.002;4.686;2023-07-24T11:43:23;100258.06;;;23.75;61.23
59337;BME280;45115;52.002;4.686;2023-07-24T11:45:52;100264.78;;;23.51;62.38
59337;BME280;45115;52.002;4.686;2023-07-24T11:48:22;100262.09;;;23.33;62.50
59337;BME280;45115;52.002;4.686;2023-07-24T11:50:50;100265.75;;;23.34;63.24
59337;BME280;45115;52.002;4.686;2023-07-24T11:53:21;100269.97;;;22.83;63.59
59337;BME280;45115;52.002;4.686;2023-07-24T11:55:49;100266.22;;;22.30;66.41
59337;BME280;45115;52.002;4.686;2023-07-24T11:58:16;100264.13;;;21.89;67.37
59337;BME280;45115;52.002;4.686;2023-07-24T12:00:43;100268.47;;;21.85;67.16
59337;BME280;45115;52.002;4.686;2023-07-24T12:03:13;100267.63;;;21.85;67.80
59337;BME280;45115;52.002;4.686;2023-07-24T12:05:40;100271.16;;;21.74;67.98
59337;BME280;45115;52.002;4.686;2023-07-24T12:08:07;100268.94;;;21.82;67.00
59337;BME280;45115;52.002;4.686;2023-07-24T12:10:36;100272.03;;;22.10;66.79
59337;BME280;45115;52.002;4.686;2023-07-24T12:13:03;100273.69;;;22.48;65.53
59337;BME280;45115;52.002;4.686;2023-07-24T12:15:30;100261.88;;;23.05;63.67
59337;BME280;45115;52.002;4.686;2023-07-24T12:17:58;100261.56;;;23.24;63.36
59337;BME280;45115;52.002;4.686;2023-07-24T12:20:27;100262.81;;;23.75;60.73
59337;BME280;45115;52.002;4.686;2023-07-24T12:22:54;100261.44;;;24.00;60.90
59337;BME280;45115;52.002;4.686;2023-07-24T12:25:20;100258.69;;;23.77;60.21
59337;BME280;45115;52.002;4.686;2023-07-24T12:27:47;100256.25;;;23.35;62.19
59337;BME280;45115;52.002;4.686;2023-07-24T12:30:14;100260.28;;;22.97;63.52
59337;BME280;45115;52.002;4.686;2023-07-24T12:32:41;100264.31;;;23.01;64.84
59337;BME280;45115;52.002;4.686;2023-07-24T12:35:08;100269.25;;;22.88;63.11
59337;BME280;45115;52.002;4.686;2023-07-24T12:37:36;100270.00;;;22.95;64.13
59337;BME280;45115;52.002;4.686;2023-07-24T12:40:05;100262.06;;;22.80;63.82
59337;BME280;45115;52.002;4.686;2023-07-24T12:42:32;100269.88;;;23.77;62.38
59337;BME280;45115;52.002;4.686;2023-07-24T12:44:59;100262.69;;;23.93;60.50
59337;BME280;45115;52.002;4.686;2023-07-24T12:47:28;100263.25;;;24.18;60.11
59337;BME280;45115;52.002;4.686;2023-07-24T12:49:54;100261.22;;;24.02;59.66
59337;BME280;45115;52.002;4.686;2023-07-24T12:52:22;100262.31;;;24.01;60.29
59337;BME280;45115;52.002;4.686;2023-07-24T12:54:51;100262.44;;;23.94;61.43
59337;BME280;45115;52.002;4.686;2023-07-24T12:57:17;100258.09;;;24.26;60.38
59337;BME280;45115;52.002;4.686;2023-07-24T12:59:44;100253.97;;;24.29;58.89